sensor_id;sensor_type;location;lat;lon;timestamp;P1;durP1;ratioP1;P2;durP2;ratioP2
10985;SDS011;5546;48.714;8.738;2022-08-19T00:00:43;14.20;;;12.80;;
10985;SDS011;5546;48.714;8.738;2022-08-19T00:03:09;16.23;;;14.13;;
10985;SDS011;5546;48.714;8.738;2022-08-19T00:05:34;15.48;;;13.80;;
10985;SDS011;5546;48.714;8.738;2022-08-19T00:08:01;16.63;;;13.95;;
10985;SDS011;5546;48.714;8.738;2022-08-19T00:10:26;15.07;;;13.48;;
10985;SDS011;5546;48.714;8.738;2022-08-19T00:12:52;15.27;;;13.68;;
10985;SDS011;5546;48.714;8.738;2022-08-19T00:15:20;17.15;;;14.00;;
10985;SDS011;5546;48.714;8.738;2022-08-19T00:17:46;15.18;;;12.90;;
10985;SDS011;5546;48.714;8.738;2022-08-19T00:20:14;16.63;;;14.70;;
10985;SDS011;5546;48.714;8.738;2022-08-19T00:22:42;15.00;;;13.45;;
10985;SDS011;5546;48.714;8.738;2022-08-19T00:25:12;16.15;;;13.45;;
10985;SDS011;5546;48.714;8.738;2022-08-19T00:27:38;15.02;;;13.40;;
10985;SDS011;5546;48.714;8.738;2022-08-19T00:30:04;15.50;;;13.95;;
10985;SDS011;5546;48.714;8.738;2022-08-19T00:32:32;17.20;;;14.82;;
10985;SDS011;5546;48.714;8.738;2022-08-19T00:34:59;16.95;;;15.15;;
10985;SDS011;5546;48.714;8.738;2022-08-19T00:37:25;16.02;;;14.40;;
10985;SDS011;5546;48.714;8.738;2022-08-19T00:39:51;16.20;;;14.20;;
10985;SDS011;5546;48.714;8.738;2022-08-19T00:42:18;19.17;;;15.02;;
10985;SDS011;5546;48.714;8.738;2022-08-19T00:44:45;17.00;;;15.18;;
10985;SDS011;5546;48.714;8.738;2022-08-19T00:47:10;19.80;;;15.45;;
10985;SDS011;5546;48.714;8.738;2022-08-19T00:49:41;19.48;;;15.10;;
10985;SDS011;5546;48.714;8.738;2022-08-19T00:52:08;16.58;;;14.88;;
10985;SDS011;5546;48.714;8.738;2022-08-19T00:54:38;17.38;;;15.57;;
10985;SDS011;5546;48.714;8.738;2022-08-19T00:57:06;18.27;;;15.45;;
10985;SDS011;5546;48.714;8.738;2022-08-19T00:59:34;18.48;;;15.23;;
10985;SDS011;5546;48.714;8.738;2022-08-19T01:02:02;17.80;;;15.15;;
10985;SDS011;5546;48.714;8.738;2022-08-19T01:04:28;16.08;;;14.48;;
10985;SDS011;5546;48.714;8.738;2022-08-19T01:06:54;16.75;;;15.05;;
10985;SDS011;5546;48.714;8.738;2022-08-19T01:09:21;16.02;;;14.43;;
10985;SDS011;5546;48.714;8.738;2022-08-19T01:11:46;17.08;;;15.43;;
10985;SDS011;5546;48.714;8.738;2022-08-19T01:14:12;16.65;;;14.90;;
10985;SDS011;5546;48.714;8.738;2022-08-19T01:16:38;17.23;;;14.63;;
10985;SDS011;5546;48.714;8.738;2022-08-19T01:21:55;16.63;;;14.82;;
10985;SDS011;5546;48.714;8.738;2022-08-19T01:24:25;17.70;;;14.50;;
10985;SDS011;5546;48.714;8.738;2022-08-19T01:26:51;20.15;;;15.00;;
10985;SDS011;5546;48.714;8.738;2022-08-19T01:29:17;19.08;;;15.48;;
10985;SDS011;5546;48.714;8.738;2022-08-19T01:31:43;17.08;;;15.13;;
10985;SDS011;5546;48.714;8.738;2022-08-19T01:34:09;16.83;;;15.13;;
10985;SDS011;5546;48.714;8.738;2022-08-19T01:36:36;20.23;;;14.98;;
10985;SDS011;5546;48.714;8.738;2022-08-19T01:39:11;18.33;;;16.38;;
10985;SDS011;5546;48.714;8.738;2022-08-19T01:41:39;17.67;;;15.88;;
10985;SDS011;5546;48.714;8.738;2022-08-19T01:44:06;16.83;;;14.95;;
10985;SDS011;5546;48.714;8.738;2022-08-19T01:46:32;16.13;;;14.52;;
10985;SDS011;5546;48.714;8.738;2022-08-19T01:48:58;18.52;;;15.02;;
10985;SDS011;5546;48.714;8.738;2022-08-19T01:51:25;16.92;;;15.10;;
10985;SDS011;5546;48.714;8.738;2022-08-19T01:53:51;18.80;;;15.88;;
10985;SDS011;5546;48.714;8.738;2022-08-19T01:56:17;18.35;;;15.80;;
10985;SDS011;5546;48.714;8.738;2022-08-19T01:58:49;17.98;;;16.05;;
10985;SDS011;5546;48.714;8.738;2022-08-19T02:01:19;17.80;;;15.98;;
10985;SDS011;5546;48.714;8.738;2022-08-19T02:03:44;17.40;;;15.60;;
10985;SDS011;5546;48.714;8.738;2022-08-19T02:06:10;19.00;;;16.10;;
10985;SDS011;5546;48.714;8.738;2022-08-19T02:08:37;17.60;;;15.80;;
10985;SDS011;5546;48.714;8.738;2022-08-19T02:11:03;17.02;;;15.32;;
10985;SDS011;5546;48.714;8.738;2022-08-19T02:13:30;17.00;;;15.30;;
10985;SDS011;5546;48.714;8.738;2022-08-19T02:15:56;17.08;;;15.40;;
10985;SDS011;5546;48.714;8.738;2022-08-19T02:18:22;17.77;;;16.08;;
10985;SDS011;5546;48.714;8.738;2022-08-19T02:20:48;17.45;;;15.65;;
10985;SDS011;5546;48.714;8.738;2022-08-19T02:23:14;18.40;;;15.90;;
10985;SDS011;5546;48.714;8.738;2022-08-19T02:25:42;17.20;;;15.55;;
10985;SDS011;5546;48.714;8.738;2022-08-19T02:28:12;17.80;;;16.00;;
10985;SDS011;5546;48.714;8.738;2022-08-19T02:30:38;18.02;;;16.23;;
10985;SDS011;5546;48.714;8.738;2022-08-19T02:33:06;18.73;;;16.83;;
10985;SDS011;5546;48.714;8.738;2022-08-19T02:35:31;17.05;;;15.25;;
10985;SDS011;5546;48.714;8.738;2022-08-19T02:37:57;18.70;;;16.42;;
10985;SDS011;5546;48.714;8.738;2022-08-19T02:40:46;17.50;;;15.63;;
10985;SDS011;5546;48.714;8.738;2022-08-19T02:43:15;18.15;;;16.35;;
10985;SDS011;5546;48.714;8.738;2022-08-19T02:45:40;18.35;;;16.55;;
10985;SDS011;5546;48.714;8.738;2022-08-19T02:48:06;18.92;;;17.02;;
10985;SDS011;5546;48.714;8.738;2022-08-19T02:50:32;20.00;;;16.35;;
10985;SDS011;5546;48.714;8.738;2022-08-19T02:52:58;17.92;;;16.02;;
10985;SDS011;5546;48.714;8.738;2022-08-19T02:55:23;18.08;;;16.27;;
10985;SDS011;5546;48.714;8.738;2022-08-19T02:57:49;18.45;;;16.50;;
10985;SDS011;5546;48.714;8.738;2022-08-19T03:00:14;20.00;;;17.60;;
10985;SDS011;5546;48.714;8.738;2022-08-19T03:02:41;18.65;;;16.77;;
10985;SDS011;5546;48.714;8.738;2022-08-19T03:05:07;21.05;;;17.13;;
10985;SDS011;5546;48.714;8.738;2022-08-19T03:07:34;19.13;;;16.40;;
10985;SDS011;5546;48.714;8.738;2022-08-19T03:10:01;18.63;;;16.73;;
10985;SDS011;5546;48.714;8.738;2022-08-19T03:12:27;18.98;;;16.83;;
10985;SDS011;5546;48.714;8.738;2022-08-19T03:14:52;18.65;;;16.85;;
10985;SDS011;5546;48.714;8.738;2022-08-19T03:17:18;23.92;;;20.88;;
10985;SDS011;5546;48.714;8.738;2022-08-19T03:19:44;20.15;;;18.08;;
10985;SDS011;5546;48.714;8.738;2022-08-19T03:22:09;19.73;;;17.73;;
10985;SDS011;5546;48.714;8.738;2022-08-19T03:24:35;18.52;;;16.63;;
10985;SDS011;5546;48.714;8.738;2022-08-19T03:27:01;20.45;;;18.15;;
10985;SDS011;5546;48.714;8.738;2022-08-19T03:29:28;20.60;;;18.52;;
10985;SDS011;5546;48.714;8.738;2022-08-19T03:31:56;21.83;;;18.17;;
10985;SDS011;5546;48.714;8.738;2022-08-19T03:34:27;19.80;;;17.75;;
10985;SDS011;5546;48.714;8.738;2022-08-19T03:36:55;22.58;;;18.48;;
10985;SDS011;5546;48.714;8.738;2022-08-19T03:39:23;23.27;;;19.77;;
10985;SDS011;5546;48.714;8.738;2022-08-19T03:41:50;20.88;;;18.77;;
10985;SDS011;5546;48.714;8.738;2022-08-19T03:44:19;21.85;;;19.58;;
10985;SDS011;5546;48.714;8.738;2022-08-19T03:46:46;24.67;;;20.20;;
10985;SDS011;5546;48.714;8.738;2022-08-19T03:49:17;21.88;;;19.05;;
10985;SDS011;5546;48.714;8.738;2022-08-19T03:51:47;21.80;;;18.90;;
10985;SDS011;5546;48.714;8.738;2022-08-19T03:54:15;23.45;;;20.42;;
10985;SDS011;5546;48.714;8.738;2022-08-19T03:56:44;22.17;;;18.42;;
10985;SDS011;5546;48.714;8.738;2022-08-19T03:59:12;21.30;;;18.77;;
10985;SDS011;5546;48.714;8.738;2022-08-19T04:01:43;22.27;;;19.88;;
10985;SDS011;5546;48.714;8.738;2022-08-19T04:04:09;19.95;;;18.05;;
10985;SDS011;5546;48.714;8.738;2022-08-19T04:06:35;20.35;;;18.20;;
10985;SDS011;5546;48.714;8.738;2022-08-19T04:09:05;22.57;;;19.27;;
10985;SDS011;5546;48.714;8.738;2022-08-19T04:11:37;20.33;;;17.50;;
10985;SDS011;5546;48.714;8.738;2022-08-19T04:14:08;21.42;;;17.80;;
10985;SDS011;5546;48.714;8.738;2022-08-19T04:16:35;20.70;;;18.50;;
10985;SDS011;5546;48.714;8.738;2022-08-19T04:19:01;21.35;;;19.08;;
10985;SDS011;5546;48.714;8.738;2022-08-19T04:21:28;21.25;;;18.85;;
10985;SDS011;5546;48.714;8.738;2022-08-19T04:23:54;21.90;;;19.58;;
10985;SDS011;5546;48.714;8.738;2022-08-19T04:26:22;21.37;;;19.27;;
10985;SDS011;5546;48.714;8.738;2022-08-19T04:28:49;23.13;;;19.98;;
10985;SDS011;5546;48.714;8.738;2022-08-19T04:31:24;19.30;;;17.40;;
10985;SDS011;5546;48.714;8.738;2022-08-19T04:33:55;20.42;;;18.35;;
10985;SDS011;5546;48.714;8.738;2022-08-19T04:36:24;20.10;;;18.20;;
10985;SDS011;5546;48.714;8.738;2022-08-19T04:38:53;20.43;;;18.23;;
10985;SDS011;5546;48.714;8.738;2022-08-19T04:41:25;19.77;;;17.88;;
10985;SDS011;5546;48.714;8.738;2022-08-19T04:44:10;21.73;;;17.95;;
10985;SDS011;5546;48.714;8.738;2022-08-19T04:46:37;19.75;;;17.75;;
10985;SDS011;5546;48.714;8.738;2022-08-19T04:49:03;19.63;;;17.58;;
10985;SDS011;5546;48.714;8.738;2022-08-19T04:51:31;20.80;;;18.70;;
10985;SDS011;5546;48.714;8.738;2022-08-19T04:53:57;20.93;;;18.97;;
10985;SDS011;5546;48.714;8.738;2022-08-19T04:56:25;20.13;;;18.10;;
10985;SDS011;5546;48.714;8.738;2022-08-19T04:58:52;19.88;;;17.80;;
10985;SDS011;5546;48.714;8.738;2022-08-19T05:01:20;21.08;;;18.88;;
10985;SDS011;5546;48.714;8.738;2022-08-19T05:03:51;20.42;;;18.30;;
10985;SDS011;5546;48.714;8.738;2022-08-19T05:06:18;21.05;;;19.02;;
10985;SDS011;5546;48.714;8.738;2022-08-19T05:08:45;22.15;;;19.95;;
10985;SDS011;5546;48.714;8.738;2022-08-19T05:11:16;20.52;;;18.02;;
10985;SDS011;5546;48.714;8.738;2022-08-19T05:13:45;21.67;;;19.38;;
10985;SDS011;5546;48.714;8.738;2022-08-19T05:16:13;23.25;;;20.88;;
10985;SDS011;5546;48.714;8.738;2022-08-19T05:18:39;21.10;;;19.10;;
10985;SDS011;5546;48.714;8.738;2022-08-19T05:21:24;21.70;;;19.40;;
10985;SDS011;5546;48.714;8.738;2022-08-19T05:24:09;20.58;;;18.20;;
10985;SDS011;5546;48.714;8.738;2022-08-19T05:26:36;20.80;;;18.55;;
10985;SDS011;5546;48.714;8.738;2022-08-19T05:29:02;19.75;;;17.73;;
10985;SDS011;5546;48.714;8.738;2022-08-19T05:31:28;21.58;;;19.38;;
10985;SDS011;5546;48.714;8.738;2022-08-19T05:33:54;23.20;;;20.73;;
10985;SDS011;5546;48.714;8.738;2022-08-19T05:36:23;24.48;;;21.92;;
10985;SDS011;5546;48.714;8.738;2022-08-19T05:38:52;27.38;;;23.15;;
10985;SDS011;5546;48.714;8.738;2022-08-19T05:41:18;25.08;;;22.38;;
10985;SDS011;5546;48.714;8.738;2022-08-19T05:43:45;24.35;;;21.92;;
10985;SDS011;5546;48.714;8.738;2022-08-19T05:46:16;25.95;;;21.65;;
10985;SDS011;5546;48.714;8.738;2022-08-19T05:48:43;25.13;;;22.48;;
10985;SDS011;5546;48.714;8.738;2022-08-19T05:51:09;22.95;;;20.58;;
10985;SDS011;5546;48.714;8.738;2022-08-19T05:53:35;25.30;;;21.70;;
10985;SDS011;5546;48.714;8.738;2022-08-19T05:56:07;23.58;;;21.30;;
10985;SDS011;5546;48.714;8.738;2022-08-19T05:58:35;24.08;;;21.60;;
10985;SDS011;5546;48.714;8.738;2022-08-19T06:01:02;22.27;;;19.85;;
10985;SDS011;5546;48.714;8.738;2022-08-19T06:03:33;23.75;;;21.15;;
10985;SDS011;5546;48.714;8.738;2022-08-19T06:06:01;23.65;;;21.17;;
10985;SDS011;5546;48.714;8.738;2022-08-19T06:08:27;22.95;;;20.65;;
10985;SDS011;5546;48.714;8.738;2022-08-19T06:10:53;24.88;;;21.92;;
10985;SDS011;5546;48.714;8.738;2022-08-19T06:13:19;22.67;;;20.38;;
10985;SDS011;5546;48.714;8.738;2022-08-19T06:15:46;23.30;;;20.77;;
10985;SDS011;5546;48.714;8.738;2022-08-19T06:18:12;23.35;;;20.98;;
10985;SDS011;5546;48.714;8.738;2022-08-19T06:20:39;20.58;;;18.52;;
10985;SDS011;5546;48.714;8.738;2022-08-19T06:23:05;20.17;;;18.27;;
10985;SDS011;5546;48.714;8.738;2022-08-19T06:25:31;24.08;;;21.67;;
10985;SDS011;5546;48.714;8.738;2022-08-19T06:27:57;23.42;;;20.90;;
10985;SDS011;5546;48.714;8.738;2022-08-19T06:30:22;22.60;;;20.35;;
10985;SDS011;5546;48.714;8.738;2022-08-19T06:32:48;24.40;;;21.95;;
10985;SDS011;5546;48.714;8.738;2022-08-19T06:35:13;24.40;;;21.83;;
10985;SDS011;5546;48.714;8.738;2022-08-19T06:37:39;23.90;;;21.40;;
10985;SDS011;5546;48.714;8.738;2022-08-19T06:40:05;23.98;;;21.52;;
10985;SDS011;5546;48.714;8.738;2022-08-19T06:42:33;23.38;;;21.02;;
10985;SDS011;5546;48.714;8.738;2022-08-19T06:45:03;21.92;;;19.35;;
10985;SDS011;5546;48.714;8.738;2022-08-19T06:47:29;21.80;;;19.67;;
10985;SDS011;5546;48.714;8.738;2022-08-19T06:49:57;22.95;;;19.30;;
10985;SDS011;5546;48.714;8.738;2022-08-19T06:52:31;25.65;;;20.02;;
10985;SDS011;5546;48.714;8.738;2022-08-19T06:54:58;20.10;;;18.00;;
10985;SDS011;5546;48.714;8.738;2022-08-19T06:57:24;20.58;;;18.58;;
10985;SDS011;5546;48.714;8.738;2022-08-19T06:59:51;20.52;;;18.45;;
10985;SDS011;5546;48.714;8.738;2022-08-19T07:02:17;20.17;;;18.17;;
10985;SDS011;5546;48.714;8.738;2022-08-19T07:04:43;19.63;;;17.63;;
10985;SDS011;5546;48.714;8.738;2022-08-19T07:07:10;19.70;;;17.55;;
10985;SDS011;5546;48.714;8.738;2022-08-19T07:09:38;20.20;;;17.52;;
10985;SDS011;5546;48.714;8.738;2022-08-19T07:12:07;18.90;;;17.02;;
10985;SDS011;5546;48.714;8.738;2022-08-19T07:14:35;20.25;;;18.15;;
10985;SDS011;5546;48.714;8.738;2022-08-19T07:17:02;19.08;;;17.10;;
10985;SDS011;5546;48.714;8.738;2022-08-19T07:19:30;19.45;;;17.65;;
10985;SDS011;5546;48.714;8.738;2022-08-19T07:21:56;18.80;;;16.92;;
10985;SDS011;5546;48.714;8.738;2022-08-19T07:24:24;20.13;;;18.02;;
10985;SDS011;5546;48.714;8.738;2022-08-19T07:26:53;17.92;;;16.23;;
10985;SDS011;5546;48.714;8.738;2022-08-19T07:29:21;18.00;;;16.13;;
10985;SDS011;5546;48.714;8.738;2022-08-19T07:31:48;16.13;;;14.52;;
10985;SDS011;5546;48.714;8.738;2022-08-19T07:34:15;17.65;;;16.05;;
10985;SDS011;5546;48.714;8.738;2022-08-19T07:36:41;18.00;;;16.40;;
10985;SDS011;5546;48.714;8.738;2022-08-19T07:39:11;16.63;;;14.93;;
10985;SDS011;5546;48.714;8.738;2022-08-19T07:41:39;21.42;;;16.27;;
10985;SDS011;5546;48.714;8.738;2022-08-19T07:44:05;17.70;;;15.90;;
10985;SDS011;5546;48.714;8.738;2022-08-19T07:46:33;70.18;;;29.02;;
10985;SDS011;5546;48.714;8.738;2022-08-19T07:49:00;17.33;;;15.80;;
10985;SDS011;5546;48.714;8.738;2022-08-19T07:51:27;15.95;;;14.40;;
10985;SDS011;5546;48.714;8.738;2022-08-19T07:53:53;16.25;;;14.70;;
10985;SDS011;5546;48.714;8.738;2022-08-19T07:56:20;16.52;;;15.05;;
10985;SDS011;5546;48.714;8.738;2022-08-19T07:58:46;15.40;;;13.90;;
10985;SDS011;5546;48.714;8.738;2022-08-19T08:01:18;15.85;;;14.43;;
10985;SDS011;5546;48.714;8.738;2022-08-19T08:03:46;16.73;;;13.57;;
10985;SDS011;5546;48.714;8.738;2022-08-19T08:06:31;14.77;;;13.27;;
10985;SDS011;5546;48.714;8.738;2022-08-19T08:09:17;12.57;;;11.35;;
10985;SDS011;5546;48.714;8.738;2022-08-19T08:11:50;14.00;;;12.60;;
10985;SDS011;5546;48.714;8.738;2022-08-19T08:14:23;13.40;;;12.10;;
10985;SDS011;5546;48.714;8.738;2022-08-19T08:16:57;12.55;;;11.35;;
10985;SDS011;5546;48.714;8.738;2022-08-19T08:19:25;13.60;;;12.23;;
10985;SDS011;5546;48.714;8.738;2022-08-19T08:21:57;14.05;;;11.02;;
10985;SDS011;5546;48.714;8.738;2022-08-19T08:24:24;11.90;;;10.80;;
10985;SDS011;5546;48.714;8.738;2022-08-19T08:26:52;11.40;;;10.30;;
10985;SDS011;5546;48.714;8.738;2022-08-19T08:29:17;12.75;;;11.55;;
10985;SDS011;5546;48.714;8.738;2022-08-19T08:31:44;14.10;;;12.40;;
10985;SDS011;5546;48.714;8.738;2022-08-19T08:34:11;13.68;;;12.25;;
10985;SDS011;5546;48.714;8.738;2022-08-19T08:36:39;14.60;;;12.57;;
10985;SDS011;5546;48.714;8.738;2022-08-19T08:39:07;13.82;;;12.50;;
10985;SDS011;5546;48.714;8.738;2022-08-19T08:41:49;13.55;;;12.35;;
10985;SDS011;5546;48.714;8.738;2022-08-19T08:44:19;13.52;;;12.20;;
10985;SDS011;5546;48.714;8.738;2022-08-19T08:46:57;13.55;;;12.35;;
10985;SDS011;5546;48.714;8.738;2022-08-19T08:49:33;15.07;;;12.70;;
10985;SDS011;5546;48.714;8.738;2022-08-19T08:52:29;12.88;;;11.68;;
10985;SDS011;5546;48.714;8.738;2022-08-19T08:55:03;13.57;;;12.23;;
10985;SDS011;5546;48.714;8.738;2022-08-19T08:57:40;12.90;;;11.70;;
10985;SDS011;5546;48.714;8.738;2022-08-19T09:00:14;14.95;;;12.45;;
10985;SDS011;5546;48.714;8.738;2022-08-19T09:02:55;12.65;;;11.55;;
10985;SDS011;5546;48.714;8.738;2022-08-19T09:05:22;12.25;;;11.05;;
10985;SDS011;5546;48.714;8.738;2022-08-19T09:07:59;13.15;;;11.85;;
10985;SDS011;5546;48.714;8.738;2022-08-19T09:10:37;14.02;;;12.10;;
10985;SDS011;5546;48.714;8.738;2022-08-19T09:16:12;12.07;;;11.02;;
10985;SDS011;5546;48.714;8.738;2022-08-19T09:18:40;12.52;;;11.32;;
10985;SDS011;5546;48.714;8.738;2022-08-19T09:21:19;12.52;;;11.35;;
10985;SDS011;5546;48.714;8.738;2022-08-19T09:23:47;12.43;;;11.25;;
10985;SDS011;5546;48.714;8.738;2022-08-19T09:26:15;13.13;;;11.93;;
10985;SDS011;5546;48.714;8.738;2022-08-19T09:28:43;12.98;;;11.52;;
10985;SDS011;5546;48.714;8.738;2022-08-19T09:31:11;13.77;;;12.48;;
10985;SDS011;5546;48.714;8.738;2022-08-19T09:33:38;13.40;;;12.25;;
10985;SDS011;5546;48.714;8.738;2022-08-19T09:36:07;14.20;;;12.75;;
10985;SDS011;5546;48.714;8.738;2022-08-19T09:38:34;13.38;;;12.07;;
10985;SDS011;5546;48.714;8.738;2022-08-19T09:41:10;14.27;;;12.73;;
10985;SDS011;5546;48.714;8.738;2022-08-19T09:43:39;13.18;;;11.88;;
10985;SDS011;5546;48.714;8.738;2022-08-19T09:46:07;13.15;;;11.95;;
10985;SDS011;5546;48.714;8.738;2022-08-19T09:48:37;13.88;;;12.68;;
10985;SDS011;5546;48.714;8.738;2022-08-19T09:51:07;13.00;;;11.75;;
10985;SDS011;5546;48.714;8.738;2022-08-19T09:53:35;13.93;;;12.55;;
10985;SDS011;5546;48.714;8.738;2022-08-19T09:56:01;13.93;;;12.32;;
10985;SDS011;5546;48.714;8.738;2022-08-19T09:58:28;13.68;;;12.38;;
10985;SDS011;5546;48.714;8.738;2022-08-19T10:00:55;13.02;;;11.82;;
10985;SDS011;5546;48.714;8.738;2022-08-19T10:03:22;13.80;;;11.20;;
10985;SDS011;5546;48.714;8.738;2022-08-19T10:05:48;12.73;;;11.00;;
10985;SDS011;5546;48.714;8.738;2022-08-19T10:08:15;13.98;;;12.13;;
10985;SDS011;5546;48.714;8.738;2022-08-19T10:10:42;13.52;;;12.13;;
10985;SDS011;5546;48.714;8.738;2022-08-19T10:13:10;12.18;;;11.07;;
10985;SDS011;5546;48.714;8.738;2022-08-19T10:15:36;11.77;;;10.70;;
10985;SDS011;5546;48.714;8.738;2022-08-19T10:18:04;11.73;;;10.50;;
10985;SDS011;5546;48.714;8.738;2022-08-19T10:20:31;13.43;;;11.43;;
10985;SDS011;5546;48.714;8.738;2022-08-19T10:22:56;12.35;;;11.05;;
10985;SDS011;5546;48.714;8.738;2022-08-19T10:25:24;13.13;;;10.63;;
10985;SDS011;5546;48.714;8.738;2022-08-19T10:27:51;12.13;;;11.00;;
10985;SDS011;5546;48.714;8.738;2022-08-19T10:30:16;11.00;;;9.90;;
10985;SDS011;5546;48.714;8.738;2022-08-19T10:32:42;11.98;;;10.82;;
10985;SDS011;5546;48.714;8.738;2022-08-19T10:35:09;10.77;;;9.75;;
10985;SDS011;5546;48.714;8.738;2022-08-19T10:37:36;9.65;;;8.85;;
10985;SDS011;5546;48.714;8.738;2022-08-19T10:40:03;10.45;;;9.35;;
10985;SDS011;5546;48.714;8.738;2022-08-19T10:42:33;9.00;;;8.20;;
10985;SDS011;5546;48.714;8.738;2022-08-19T10:45:00;9.35;;;8.43;;
10985;SDS011;5546;48.714;8.738;2022-08-19T10:47:26;10.60;;;7.68;;
10985;SDS011;5546;48.714;8.738;2022-08-19T10:49:52;8.95;;;7.80;;
10985;SDS011;5546;48.714;8.738;2022-08-19T10:52:41;8.38;;;7.57;;
10985;SDS011;5546;48.714;8.738;2022-08-19T10:55:11;8.32;;;7.55;;
10985;SDS011;5546;48.714;8.738;2022-08-19T10:57:56;11.43;;;7.63;;
10985;SDS011;5546;48.714;8.738;2022-08-19T11:00:22;7.45;;;6.85;;
10985;SDS011;5546;48.714;8.738;2022-08-19T11:02:49;7.93;;;6.68;;
10985;SDS011;5546;48.714;8.738;2022-08-19T11:05:15;7.95;;;6.63;;
10985;SDS011;5546;48.714;8.738;2022-08-19T11:07:42;8.77;;;6.88;;
10985;SDS011;5546;48.714;8.738;2022-08-19T11:10:12;7.57;;;6.88;;
10985;SDS011;5546;48.714;8.738;2022-08-19T11:12:39;7.40;;;6.78;;
10985;SDS011;5546;48.714;8.738;2022-08-19T11:15:06;6.97;;;5.85;;
10985;SDS011;5546;48.714;8.738;2022-08-19T11:17:33;7.00;;;6.10;;
10985;SDS011;5546;48.714;8.738;2022-08-19T11:20:00;8.23;;;7.00;;
10985;SDS011;5546;48.714;8.738;2022-08-19T11:22:27;9.25;;;6.85;;
10985;SDS011;5546;48.714;8.738;2022-08-19T11:24:53;14.15;;;7.43;;
10985;SDS011;5546;48.714;8.738;2022-08-19T11:27:20;6.40;;;5.90;;
10985;SDS011;5546;48.714;8.738;2022-08-19T11:29:45;7.13;;;6.53;;
10985;SDS011;5546;48.714;8.738;2022-08-19T11:32:11;6.75;;;6.05;;
10985;SDS011;5546;48.714;8.738;2022-08-19T11:34:37;7.85;;;6.25;;
10985;SDS011;5546;48.714;8.738;2022-08-19T11:37:05;6.70;;;6.00;;
10985;SDS011;5546;48.714;8.738;2022-08-19T11:39:31;6.88;;;6.25;;
10985;SDS011;5546;48.714;8.738;2022-08-19T11:41:58;7.25;;;6.43;;
10985;SDS011;5546;48.714;8.738;2022-08-19T11:44:26;6.72;;;6.13;;
10985;SDS011;5546;48.714;8.738;2022-08-19T11:46:52;8.52;;;6.90;;
10985;SDS011;5546;48.714;8.738;2022-08-19T11:49:19;6.38;;;5.57;;
10985;SDS011;5546;48.714;8.738;2022-08-19T11:51:46;6.82;;;5.45;;
10985;SDS011;5546;48.714;8.738;2022-08-19T11:54:15;7.88;;;6.18;;
10985;SDS011;5546;48.714;8.738;2022-08-19T11:56:41;6.63;;;5.97;;
10985;SDS011;5546;48.714;8.738;2022-08-19T11:59:07;6.03;;;5.53;;
10985;SDS011;5546;48.714;8.738;2022-08-19T12:01:35;6.35;;;5.85;;
10985;SDS011;5546;48.714;8.738;2022-08-19T12:04:01;8.80;;;5.75;;
10985;SDS011;5546;48.714;8.738;2022-08-19T12:06:30;6.45;;;5.85;;
10985;SDS011;5546;48.714;8.738;2022-08-19T12:09:00;6.90;;;6.00;;
10985;SDS011;5546;48.714;8.738;2022-08-19T12:11:27;6.38;;;5.57;;
10985;SDS011;5546;48.714;8.738;2022-08-19T12:13:53;5.68;;;5.20;;
10985;SDS011;5546;48.714;8.738;2022-08-19T12:16:21;7.30;;;5.35;;
10985;SDS011;5546;48.714;8.738;2022-08-19T12:18:49;5.95;;;5.35;;
10985;SDS011;5546;48.714;8.738;2022-08-19T12:21:16;5.47;;;5.07;;
10985;SDS011;5546;48.714;8.738;2022-08-19T12:23:48;6.22;;;5.68;;
10985;SDS011;5546;48.714;8.738;2022-08-19T12:26:16;6.05;;;5.35;;
10985;SDS011;5546;48.714;8.738;2022-08-19T12:28:42;6.38;;;5.85;;
10985;SDS011;5546;48.714;8.738;2022-08-19T12:31:08;5.85;;;5.32;;
10985;SDS011;5546;48.714;8.738;2022-08-19T12:33:37;5.60;;;5.05;;
10985;SDS011;5546;48.714;8.738;2022-08-19T12:36:04;6.65;;;5.53;;
10985;SDS011;5546;48.714;8.738;2022-08-19T12:38:32;5.57;;;5.07;;
10985;SDS011;5546;48.714;8.738;2022-08-19T12:40:59;5.82;;;5.30;;
10985;SDS011;5546;48.714;8.738;2022-08-19T12:43:25;7.28;;;6.40;;
10985;SDS011;5546;48.714;8.738;2022-08-19T12:45:51;6.93;;;6.40;;
10985;SDS011;5546;48.714;8.738;2022-08-19T12:48:17;7.95;;;6.68;;
10985;SDS011;5546;48.714;8.738;2022-08-19T12:50:43;9.98;;;6.45;;
10985;SDS011;5546;48.714;8.738;2022-08-19T12:53:13;6.53;;;5.93;;
10985;SDS011;5546;48.714;8.738;2022-08-19T12:55:39;7.13;;;6.40;;
10985;SDS011;5546;48.714;8.738;2022-08-19T12:58:05;7.43;;;6.82;;
10985;SDS011;5546;48.714;8.738;2022-08-19T13:00:31;7.68;;;6.40;;
10985;SDS011;5546;48.714;8.738;2022-08-19T13:02:57;7.70;;;6.30;;
10985;SDS011;5546;48.714;8.738;2022-08-19T13:05:24;7.90;;;7.07;;
10985;SDS011;5546;48.714;8.738;2022-08-19T13:07:53;7.38;;;6.80;;
10985;SDS011;5546;48.714;8.738;2022-08-19T13:10:21;7.90;;;7.30;;
10985;SDS011;5546;48.714;8.738;2022-08-19T13:12:50;7.82;;;6.57;;
10985;SDS011;5546;48.714;8.738;2022-08-19T13:15:17;7.68;;;6.95;;
10985;SDS011;5546;48.714;8.738;2022-08-19T13:17:45;7.65;;;7.00;;
10985;SDS011;5546;48.714;8.738;2022-08-19T13:20:14;7.93;;;7.05;;
10985;SDS011;5546;48.714;8.738;2022-08-19T13:22:40;6.90;;;6.38;;
10985;SDS011;5546;48.714;8.738;2022-08-19T13:25:07;7.70;;;7.10;;
10985;SDS011;5546;48.714;8.738;2022-08-19T13:27:33;8.10;;;7.40;;
10985;SDS011;5546;48.714;8.738;2022-08-19T13:29:59;7.80;;;7.03;;
10985;SDS011;5546;48.714;8.738;2022-08-19T13:32:44;7.63;;;6.93;;
10985;SDS011;5546;48.714;8.738;2022-08-19T13:35:28;8.00;;;7.25;;
10985;SDS011;5546;48.714;8.738;2022-08-19T13:37:53;7.93;;;7.13;;
10985;SDS011;5546;48.714;8.738;2022-08-19T13:40:20;7.88;;;6.90;;
10985;SDS011;5546;48.714;8.738;2022-08-19T13:42:49;7.95;;;7.25;;
10985;SDS011;5546;48.714;8.738;2022-08-19T13:45:18;8.45;;;7.75;;
10985;SDS011;5546;48.714;8.738;2022-08-19T13:47:48;8.23;;;7.63;;
10985;SDS011;5546;48.714;8.738;2022-08-19T13:50:19;9.43;;;8.27;;
10985;SDS011;5546;48.714;8.738;2022-08-19T13:52:46;9.02;;;8.15;;
10985;SDS011;5546;48.714;8.738;2022-08-19T13:55:12;9.45;;;8.55;;
10985;SDS011;5546;48.714;8.738;2022-08-19T13:57:38;9.07;;;8.27;;
10985;SDS011;5546;48.714;8.738;2022-08-19T14:00:05;8.80;;;8.02;;
10985;SDS011;5546;48.714;8.738;2022-08-19T14:02:35;8.77;;;8.00;;
10985;SDS011;5546;48.714;8.738;2022-08-19T14:05:02;8.45;;;7.68;;
10985;SDS011;5546;48.714;8.738;2022-08-19T14:07:28;8.38;;;7.65;;
10985;SDS011;5546;48.714;8.738;2022-08-19T14:09:54;8.75;;;8.05;;
10985;SDS011;5546;48.714;8.738;2022-08-19T14:12:20;8.85;;;8.05;;
10985;SDS011;5546;48.714;8.738;2022-08-19T14:14:46;8.73;;;7.97;;
10985;SDS011;5546;48.714;8.738;2022-08-19T14:17:12;8.07;;;7.47;;
10985;SDS011;5546;48.714;8.738;2022-08-19T14:19:38;8.27;;;7.57;;
10985;SDS011;5546;48.714;8.738;2022-08-19T14:22:04;9.63;;;7.93;;
10985;SDS011;5546;48.714;8.738;2022-08-19T14:24:30;8.52;;;7.75;;
10985;SDS011;5546;48.714;8.738;2022-08-19T14:26:57;8.48;;;7.78;;
10985;SDS011;5546;48.714;8.738;2022-08-19T14:29:23;8.40;;;7.60;;
10985;SDS011;5546;48.714;8.738;2022-08-19T14:31:49;7.72;;;7.13;;
10985;SDS011;5546;48.714;8.738;2022-08-19T14:34:15;7.88;;;7.18;;
10985;SDS011;5546;48.714;8.738;2022-08-19T14:36:40;7.65;;;6.95;;
10985;SDS011;5546;48.714;8.738;2022-08-19T14:39:06;7.75;;;7.05;;
10985;SDS011;5546;48.714;8.738;2022-08-19T14:41:33;7.93;;;7.15;;
10985;SDS011;5546;48.714;8.738;2022-08-19T14:43:58;8.00;;;7.30;;
10985;SDS011;5546;48.714;8.738;2022-08-19T14:46:25;8.35;;;7.55;;
10985;SDS011;5546;48.714;8.738;2022-08-19T14:48:52;7.82;;;6.95;;
10985;SDS011;5546;48.714;8.738;2022-08-19T14:51:19;7.55;;;6.85;;
10985;SDS011;5546;48.714;8.738;2022-08-19T14:53:46;6.78;;;6.20;;